createdAt,value
2018-12-09T00:02:17.988Z,8.60
2018-12-09T00:04:45.475Z,8.60
2018-12-09T00:07:13.015Z,8.60
2018-12-09T00:09:40.484Z,8.70
2018-12-09T00:12:07.937Z,8.70
2018-12-09T00:14:35.386Z,8.70
2018-12-09T00:17:02.940Z,8.70
2018-12-09T00:19:30.388Z,8.80
2018-12-09T00:21:58.031Z,8.80
2018-12-09T00:24:25.484Z,8.80
2018-12-09T00:26:52.967Z,8.80
2018-12-09T00:29:20.427Z,8.70
2018-12-09T00:31:47.887Z,8.70
2018-12-09T00:34:15.450Z,8.80
2018-12-09T00:36:44.573Z,8.80
2018-12-09T00:39:12.023Z,8.70
2018-12-09T00:41:39.469Z,8.70
2018-12-09T00:44:06.925Z,8.70
2018-12-09T00:46:34.381Z,8.70
2018-12-09T00:49:01.835Z,8.70
2018-12-09T00:51:29.392Z,8.70
2018-12-09T00:53:57.143Z,8.70
2018-12-09T00:56:24.601Z,8.70
2018-12-09T00:58:52.375Z,8.60
2018-12-09T01:01:19.827Z,8.60
2018-12-09T01:03:47.287Z,8.60
2018-12-09T01:06:14.768Z,8.60
2018-12-09T01:08:42.215Z,8.60
2018-12-09T01:11:09.963Z,8.60
2018-12-09T01:13:37.411Z,8.60
2018-12-09T01:16:06.095Z,8.60
2018-12-09T01:18:33.727Z,8.50
2018-12-09T01:21:01.301Z,8.50
2018-12-09T01:23:28.758Z,8.40
2018-12-09T01:25:56.235Z,8.20
2018-12-09T01:28:23.684Z,8.20
2018-12-09T01:30:51.232Z,8.20
2018-12-09T01:33:18.858Z,8.20
2018-12-09T01:35:46.766Z,7.90
2018-12-09T01:38:14.443Z,7.70
2018-12-09T01:40:47.667Z,7.60
2018-12-09T01:43:15.205Z,7.40
2018-12-09T01:45:42.837Z,7.40
2018-12-09T01:48:10.577Z,7.30
2018-12-09T01:50:38.104Z,7.20
2018-12-09T01:53:17.473Z,7.20
2018-12-09T01:55:45.055Z,7.20
2018-12-09T01:58:12.512Z,7.20
2018-12-09T02:00:39.955Z,7.20
2018-12-09T02:03:07.435Z,7.20
2018-12-09T02:05:35.318Z,7.10
2018-12-09T02:08:02.777Z,7.10
2018-12-09T02:10:30.308Z,7.10
2018-12-09T02:12:57.873Z,7.10
2018-12-09T02:15:25.819Z,7.10
2018-12-09T02:17:53.299Z,7.20
2018-12-09T02:20:20.921Z,7.20
2018-12-09T02:22:48.381Z,7.20
2018-12-09T02:25:16.091Z,7.10
2018-12-09T02:27:43.567Z,7.10
2018-12-09T02:30:11.021Z,7.20
2018-12-09T02:32:38.495Z,7.10
2018-12-09T02:35:05.960Z,7.00
2018-12-09T02:37:33.416Z,7.10
2018-12-09T02:40:01.293Z,7.00
2018-12-09T02:42:28.740Z,7.00
2018-12-09T02:44:56.259Z,7.00
2018-12-09T02:47:24.136Z,7.00
2018-12-09T02:49:51.764Z,6.90
2018-12-09T02:52:19.309Z,6.80
2018-12-09T02:54:46.838Z,6.70
2018-12-09T02:57:14.548Z,6.60
2018-12-09T02:59:42.085Z,6.60
2018-12-09T03:02:10.071Z,6.60
2018-12-09T03:04:37.831Z,6.50
2018-12-09T03:07:05.596Z,6.50
2018-12-09T03:09:33.376Z,6.50
2018-12-09T03:12:00.826Z,6.50
2018-12-09T03:14:28.755Z,6.40
2018-12-09T03:16:56.344Z,6.40
2018-12-09T03:19:24.372Z,6.40
2018-12-09T03:21:52.075Z,6.40
2018-12-09T03:24:19.526Z,6.40
2018-12-09T03:26:47.070Z,7.30
2018-12-09T03:29:14.524Z,6.30
2018-12-09T03:31:41.989Z,6.40
2018-12-09T03:34:09.700Z,6.40
2018-12-09T03:36:37.127Z,6.30
2018-12-09T03:39:05.964Z,6.30
2018-12-09T03:41:33.850Z,6.40
2018-12-09T03:44:01.441Z,6.40
2018-12-09T03:46:29.209Z,6.40
2018-12-09T03:48:56.675Z,6.40
2018-12-09T03:51:24.737Z,6.40
2018-12-09T03:53:52.272Z,6.30
2018-12-09T03:56:19.820Z,6.30
2018-12-09T03:58:47.360Z,6.40
2018-12-09T04:01:14.900Z,6.40
2018-12-09T04:03:42.359Z,6.50
2018-12-09T04:06:10.270Z,6.50
2018-12-09T04:08:37.802Z,6.50
2018-12-09T04:11:05.612Z,6.50
2018-12-09T04:13:33.216Z,6.60
2018-12-09T04:16:00.656Z,6.60
2018-12-09T04:18:28.292Z,6.60
2018-12-09T04:20:56.059Z,6.60
2018-12-09T04:23:23.599Z,6.50
2018-12-09T04:25:51.186Z,6.50
2018-12-09T04:28:18.741Z,6.50
2018-12-09T04:30:46.502Z,6.50
2018-12-09T04:33:14.031Z,6.50
2018-12-09T04:35:41.715Z,6.50
2018-12-09T04:38:09.480Z,6.50
2018-12-09T04:40:37.235Z,6.50
2018-12-09T04:43:04.709Z,6.50
2018-12-09T04:45:32.152Z,6.50
2018-12-09T04:47:59.613Z,6.50
2018-12-09T04:50:27.055Z,6.60
2018-12-09T04:52:54.521Z,6.60
2018-12-09T04:55:22.508Z,6.60
2018-12-09T04:57:50.661Z,6.60
2018-12-09T05:00:29.967Z,6.60
2018-12-09T05:02:57.554Z,6.60
2018-12-09T05:05:24.999Z,6.70
2018-12-09T05:07:52.479Z,6.70
2018-12-09T05:10:19.927Z,6.70
2018-12-09T05:12:47.556Z,6.60
2018-12-09T05:15:15.321Z,6.60
2018-12-09T05:17:42.911Z,6.70
2018-12-09T05:20:10.351Z,6.70
2018-12-09T05:22:37.991Z,6.70
2018-12-09T05:25:05.587Z,6.60
2018-12-09T05:27:33.291Z,6.60
2018-12-09T05:30:00.730Z,6.70
2018-12-09T05:32:28.231Z,6.70
2018-12-09T05:34:55.932Z,6.80
2018-12-09T05:37:23.507Z,6.70
2018-12-09T05:39:51.553Z,6.70
2018-12-09T05:42:19.177Z,6.70
2018-12-09T05:44:46.773Z,6.70
2018-12-09T05:47:14.231Z,6.70
2018-12-09T05:49:41.686Z,6.70
2018-12-09T05:52:09.758Z,6.70
2018-12-09T05:54:37.286Z,6.70
2018-12-09T05:57:05.903Z,6.70
2018-12-09T05:59:33.355Z,6.80
2018-12-09T06:02:12.659Z,6.80
2018-12-09T06:04:40.195Z,6.80
2018-12-09T06:07:08.012Z,6.70
2018-12-09T06:09:35.744Z,6.80
2018-12-09T06:12:03.524Z,6.80
2018-12-09T06:14:31.616Z,6.80
2018-12-09T06:16:59.047Z,6.80
2018-12-09T06:19:26.488Z,6.80
2018-12-09T06:21:53.931Z,6.80
2018-12-09T06:24:21.375Z,6.90
2018-12-09T06:26:48.904Z,6.90
2018-12-09T06:29:16.339Z,6.90
2018-12-09T06:31:44.455Z,6.90
2018-12-09T06:34:12.081Z,6.90
2018-12-09T06:36:39.634Z,7.00
2018-12-09T06:39:07.179Z,7.00
2018-12-09T06:41:34.861Z,7.00
2018-12-09T06:44:02.320Z,7.00
2018-12-09T06:46:29.961Z,7.10
2018-12-09T06:48:57.531Z,7.10
2018-12-09T06:51:24.995Z,7.10
2018-12-09T06:53:52.444Z,7.10
2018-12-09T06:56:20.186Z,7.10
2018-12-09T06:58:47.679Z,7.10
2018-12-09T07:01:15.135Z,7.10
2018-12-09T07:03:42.653Z,7.10
2018-12-09T07:06:10.492Z,7.10
2018-12-09T07:08:38.088Z,7.10
2018-12-09T07:11:05.805Z,7.10
2018-12-09T07:13:33.344Z,7.20
2018-12-09T07:16:00.792Z,7.10
2018-12-09T07:18:28.551Z,7.20
2018-12-09T07:20:56.192Z,7.20
2018-12-09T07:23:23.784Z,7.20
2018-12-09T07:25:51.339Z,7.20
2018-12-09T07:28:19.612Z,7.20
2018-12-09T07:30:47.376Z,7.10
2018-12-09T07:33:14.826Z,7.20
2018-12-09T07:35:42.800Z,7.20
2018-12-09T07:38:10.240Z,7.20
2018-12-09T07:40:37.695Z,7.20
2018-12-09T07:43:05.151Z,7.20
2018-12-09T07:45:33.344Z,7.20
2018-12-09T07:48:00.854Z,7.20
2018-12-09T07:50:28.561Z,7.70
2018-12-09T07:52:56.194Z,8.10
2018-12-09T07:55:23.651Z,8.10
2018-12-09T07:57:51.104Z,8.20
2018-12-09T08:00:18.696Z,8.30
2018-12-09T08:02:46.132Z,8.00
2018-12-09T08:05:13.673Z,7.70
2018-12-09T08:07:41.210Z,7.60
2018-12-09T08:10:08.644Z,7.40
2018-12-09T08:12:36.940Z,7.50
2018-12-09T08:15:06.237Z,7.40
2018-12-09T08:17:33.700Z,7.40
2018-12-09T08:20:01.416Z,7.40
2018-12-09T08:22:29.180Z,7.40
2018-12-09T08:24:56.650Z,7.40
2018-12-09T08:27:24.093Z,7.40
2018-12-09T08:29:52.913Z,7.30
2018-12-09T08:32:20.556Z,7.30
2018-12-09T08:34:48.031Z,7.40
2018-12-09T08:37:15.782Z,7.40
2018-12-09T08:39:43.228Z,7.40
2018-12-09T08:42:10.685Z,7.40
2018-12-09T08:44:38.122Z,7.50
2018-12-09T08:47:05.561Z,7.50
2018-12-09T08:49:33.009Z,7.60
2018-12-09T08:52:00.521Z,7.60
2018-12-09T08:54:27.977Z,7.60
2018-12-09T08:56:55.586Z,7.60
2018-12-09T08:59:23.180Z,7.70
2018-12-09T09:01:50.656Z,7.70
2018-12-09T09:04:18.195Z,7.70
2018-12-09T09:06:45.851Z,7.70
2018-12-09T09:09:13.308Z,7.60
2018-12-09T09:11:41.677Z,8.40
2018-12-09T09:14:09.836Z,8.80
2018-12-09T09:16:37.291Z,8.40
2018-12-09T09:19:04.980Z,8.30
2018-12-09T09:21:32.431Z,8.00
2018-12-09T09:23:59.876Z,7.80
2018-12-09T09:26:27.660Z,7.80
2018-12-09T09:28:55.217Z,7.90
2018-12-09T09:31:22.800Z,7.80
2018-12-09T09:33:50.442Z,7.80
2018-12-09T09:36:17.912Z,7.80
2018-12-09T09:38:45.376Z,7.70
2018-12-09T09:41:13.016Z,7.70
2018-12-09T09:43:40.473Z,7.80
2018-12-09T09:46:07.923Z,8.00
2018-12-09T09:48:35.963Z,8.20
2018-12-09T09:51:03.457Z,8.20
2018-12-09T09:53:31.198Z,8.10
2018-12-09T09:55:58.687Z,8.00
2018-12-09T09:58:26.327Z,8.00
2018-12-09T10:00:53.771Z,8.00
2018-12-09T10:03:25.900Z,7.90
2018-12-09T10:05:51.492Z,8.00
2018-12-09T10:08:18.938Z,7.90
2018-12-09T10:10:47.397Z,7.90
2018-12-09T10:13:16.168Z,8.00
2018-12-09T10:15:43.629Z,8.10
2018-12-09T10:18:11.111Z,8.10
2018-12-09T10:20:38.759Z,8.10
2018-12-09T10:23:06.215Z,7.90
2018-12-09T10:25:33.707Z,7.70
2018-12-09T10:28:01.344Z,7.40
2018-12-09T10:30:28.782Z,7.20
2018-12-09T10:32:56.647Z,7.10
2018-12-09T10:35:24.298Z,6.90
2018-12-09T10:37:51.748Z,6.80
2018-12-09T10:40:19.203Z,6.90
2018-12-09T10:42:46.784Z,7.00
2018-12-09T10:45:14.248Z,7.30
2018-12-09T10:47:42.005Z,7.50
2018-12-09T10:50:09.444Z,7.60
2018-12-09T10:52:36.936Z,7.60
2018-12-09T10:55:04.392Z,7.60
2018-12-09T10:57:31.974Z,7.60
2018-12-09T10:59:59.600Z,7.60
2018-12-09T11:02:27.144Z,7.60
2018-12-09T11:04:54.825Z,7.80
2018-12-09T11:07:22.270Z,7.80
2018-12-09T11:09:49.739Z,7.80
2018-12-09T11:12:17.365Z,7.90
2018-12-09T11:14:44.815Z,7.80
2018-12-09T11:17:12.408Z,7.90
2018-12-09T11:19:40.161Z,7.90
2018-12-09T11:22:07.638Z,7.80
2018-12-09T11:24:35.085Z,7.90
2018-12-09T11:27:02.554Z,7.90
2018-12-09T11:29:31.498Z,7.60
2018-12-09T11:31:58.958Z,7.40
2018-12-09T11:34:26.449Z,7.40
2018-12-09T11:36:53.908Z,7.30
2018-12-09T11:39:21.534Z,7.20
2018-12-09T11:41:48.966Z,7.30
2018-12-09T11:44:17.162Z,7.30
2018-12-09T11:46:44.623Z,7.40
2018-12-09T11:49:12.119Z,7.30
2018-12-09T11:51:39.576Z,7.30
2018-12-09T11:54:07.339Z,7.50
2018-12-09T11:56:35.102Z,7.50
2018-12-09T11:59:02.865Z,7.50
2018-12-09T12:01:30.627Z,7.50
2018-12-09T12:03:58.156Z,7.70
2018-12-09T12:06:25.607Z,7.70
2018-12-09T12:08:53.168Z,7.60
2018-12-09T12:11:20.768Z,7.60
2018-12-09T12:13:48.212Z,7.40
2018-12-09T12:16:15.647Z,7.60
2018-12-09T12:18:43.143Z,7.70
2018-12-09T12:21:10.767Z,7.60
2018-12-09T12:23:38.256Z,7.60
2018-12-09T12:26:05.712Z,7.60
2018-12-09T12:28:33.377Z,7.70
2018-12-09T12:31:00.823Z,7.70
2018-12-09T12:33:28.464Z,7.70
2018-12-09T12:35:56.124Z,7.70
2018-12-09T12:38:23.695Z,7.80
2018-12-09T12:40:51.333Z,7.80
2018-12-09T12:43:18.785Z,7.80
2018-12-09T12:45:46.371Z,7.70
2018-12-09T12:48:14.144Z,7.80
2018-12-09T12:50:41.903Z,7.70
2018-12-09T12:53:09.392Z,7.60
2018-12-09T12:55:36.853Z,7.60
2018-12-09T12:58:04.335Z,7.70
2018-12-09T13:00:32.035Z,7.80
2018-12-09T13:02:59.509Z,7.80
2018-12-09T13:05:26.952Z,7.90
2018-12-09T13:07:54.403Z,7.80
2018-12-09T13:10:21.864Z,7.80
2018-12-09T13:12:49.319Z,7.90
2018-12-09T13:15:17.099Z,7.80
2018-12-09T13:17:44.575Z,7.80
2018-12-09T13:20:12.019Z,7.80
2018-12-09T13:22:39.459Z,7.90
2018-12-09T13:25:07.033Z,7.90
2018-12-09T13:27:35.363Z,8.20
2018-12-09T13:30:03.312Z,8.20
2018-12-09T13:32:30.751Z,8.90
2018-12-09T13:34:58.259Z,8.70
2018-12-09T13:37:25.721Z,8.20
2018-12-09T13:39:53.172Z,7.90
2018-12-09T13:42:20.635Z,7.90
2018-12-09T13:44:48.095Z,7.80
2018-12-09T13:47:15.860Z,7.70
2018-12-09T13:49:43.295Z,7.70
2018-12-09T13:52:10.743Z,7.70
2018-12-09T13:54:38.227Z,7.70
2018-12-09T13:57:05.858Z,7.70
2018-12-09T13:59:33.795Z,7.80
2018-12-09T14:02:01.484Z,7.70
2018-12-09T14:04:28.972Z,7.70
2018-12-09T14:06:56.428Z,7.80
2018-12-09T14:09:23.894Z,7.70
2018-12-09T14:11:51.347Z,7.70
2018-12-09T14:14:18.800Z,7.60
2018-12-09T14:16:46.262Z,7.60
2018-12-09T14:19:13.711Z,7.50
2018-12-09T14:21:41.268Z,7.60
2018-12-09T14:24:08.708Z,7.60
2018-12-09T14:26:36.160Z,7.60
2018-12-09T14:29:03.953Z,7.60
2018-12-09T14:31:34.135Z,7.60
2018-12-09T14:34:01.786Z,7.50
2018-12-09T14:36:29.227Z,7.50
2018-12-09T14:38:56.709Z,7.50
2018-12-09T14:41:25.071Z,7.40
2018-12-09T14:43:52.582Z,7.40
2018-12-09T14:46:20.049Z,7.40
2018-12-09T14:48:47.906Z,7.40
2018-12-09T14:51:15.567Z,7.40
2018-12-09T14:53:43.187Z,7.40
2018-12-09T14:56:10.646Z,7.40
2018-12-09T14:58:38.086Z,7.30
2018-12-09T15:01:05.547Z,7.20
2018-12-09T15:03:33.071Z,7.30
2018-12-09T15:06:00.612Z,7.30
2018-12-09T15:08:28.375Z,7.20
2018-12-09T15:10:55.829Z,7.20
2018-12-09T15:13:23.296Z,8.50
2018-12-09T15:15:51.064Z,8.60
2018-12-09T15:18:18.807Z,7.80
2018-12-09T15:20:46.268Z,7.50
2018-12-09T15:23:14.044Z,7.30
2018-12-09T15:25:42.012Z,7.20
2018-12-09T15:28:09.467Z,7.20
2018-12-09T15:30:37.190Z,7.10
2018-12-09T15:33:04.747Z,7.10
2018-12-09T15:35:32.198Z,7.10
2018-12-09T15:37:59.645Z,7.20
2018-12-09T15:40:27.097Z,7.20
2018-12-09T15:42:54.612Z,7.20
2018-12-09T15:45:22.069Z,7.20
2018-12-09T15:47:49.840Z,7.20
2018-12-09T15:50:17.995Z,7.20
2018-12-09T15:52:46.062Z,7.20
2018-12-09T15:55:13.540Z,7.30
2018-12-09T15:57:41.243Z,7.30
2018-12-09T16:00:09.041Z,7.30
2018-12-09T16:02:36.531Z,7.30
2018-12-09T16:05:04.802Z,7.30
2018-12-09T16:07:32.443Z,7.30
2018-12-09T16:09:59.949Z,7.30
2018-12-09T16:12:27.458Z,7.30
2018-12-09T16:14:54.973Z,7.30
2018-12-09T16:17:22.712Z,7.30
2018-12-09T16:19:50.453Z,7.30
2018-12-09T16:22:17.940Z,7.30
2018-12-09T16:24:45.607Z,7.30
2018-12-09T16:27:13.132Z,7.30
2018-12-09T16:29:40.596Z,7.30
2018-12-09T16:32:08.351Z,7.30
2018-12-09T16:34:35.807Z,7.30
2018-12-09T16:37:03.293Z,7.30
2018-12-09T16:39:30.747Z,7.30
2018-12-09T16:41:58.328Z,7.20
2018-12-09T16:44:25.810Z,7.30
2018-12-09T16:46:53.281Z,7.20
2018-12-09T16:49:20.738Z,7.20
2018-12-09T16:51:48.215Z,7.20
2018-12-09T16:54:15.774Z,7.20
2018-12-09T16:56:43.238Z,7.20
2018-12-09T16:59:10.688Z,7.20
2018-12-09T17:01:38.147Z,7.20
2018-12-09T17:04:05.808Z,7.10
2018-12-09T17:06:33.268Z,7.10
2018-12-09T17:09:00.719Z,7.10
2018-12-09T17:11:28.169Z,7.10
2018-12-09T17:13:55.743Z,7.20
2018-12-09T17:16:23.653Z,7.20
2018-12-09T17:18:51.296Z,7.20
2018-12-09T17:21:18.953Z,7.20
2018-12-09T17:23:46.502Z,7.20
2018-12-09T17:26:13.965Z,7.00
2018-12-09T17:28:41.411Z,6.90
2018-12-09T17:31:08.884Z,6.70
2018-12-09T17:33:36.384Z,6.60
2018-12-09T17:36:04.108Z,6.60
2018-12-09T17:38:31.699Z,6.60
2018-12-09T17:40:59.146Z,6.70
2018-12-09T17:43:26.810Z,6.70
2018-12-09T17:45:54.387Z,6.70
2018-12-09T17:48:21.857Z,6.80
2018-12-09T17:50:49.373Z,6.70
2018-12-09T17:53:17.492Z,6.80
2018-12-09T17:55:45.071Z,6.80
2018-12-09T17:58:12.524Z,6.80
2018-12-09T18:00:40.173Z,6.80
2018-12-09T18:03:07.621Z,6.70
2018-12-09T18:05:35.144Z,6.80
2018-12-09T18:08:02.848Z,6.80
2018-12-09T18:10:30.292Z,6.80
2018-12-09T18:12:58.129Z,6.70
2018-12-09T18:15:25.586Z,6.70
2018-12-09T18:17:53.155Z,6.70
2018-12-09T18:20:20.675Z,6.70
2018-12-09T18:22:48.096Z,6.70
2018-12-09T18:25:15.669Z,6.80
2018-12-09T18:27:43.112Z,6.70
2018-12-09T18:30:10.569Z,6.80
2018-12-09T18:32:38.016Z,6.80
2018-12-09T18:35:06.791Z,6.80
2018-12-09T18:37:35.522Z,6.90
2018-12-09T18:40:04.419Z,6.90
2018-12-09T18:42:31.879Z,6.80
2018-12-09T18:44:59.622Z,6.80
2018-12-09T18:47:27.233Z,6.80
2018-12-09T18:49:54.707Z,6.80
2018-12-09T18:52:22.225Z,6.80
2018-12-09T18:54:49.753Z,6.90
2018-12-09T18:57:17.212Z,6.80
2018-12-09T18:59:44.664Z,6.90
2018-12-09T19:02:12.192Z,6.90
2018-12-09T19:04:39.718Z,6.90
2018-12-09T19:07:07.248Z,6.90
2018-12-09T19:09:35.236Z,7.60
2018-12-09T19:12:03.027Z,8.00
2018-12-09T19:14:30.507Z,8.30
2018-12-09T19:16:57.956Z,7.50
2018-12-09T19:19:25.449Z,7.00
2018-12-09T19:21:52.908Z,6.90
2018-12-09T19:24:21.250Z,6.80
2018-12-09T19:26:48.758Z,6.60
2018-12-09T19:29:16.343Z,6.60
2018-12-09T19:31:44.704Z,6.50
2018-12-09T19:34:12.171Z,6.40
2018-12-09T19:36:39.614Z,6.40
2018-12-09T19:39:07.228Z,6.40
2018-12-09T19:41:34.680Z,6.30
2018-12-09T19:44:02.172Z,6.30
2018-12-09T19:46:29.724Z,6.30
2018-12-09T19:48:59.189Z,6.20
2018-12-09T19:51:26.725Z,6.20
2018-12-09T19:53:54.188Z,6.20
2018-12-09T19:56:21.684Z,6.30
2018-12-09T19:58:49.144Z,6.30
2018-12-09T20:01:16.657Z,6.30
2018-12-09T20:03:46.068Z,6.40
2018-12-09T20:06:13.542Z,6.30
2018-12-09T20:08:41.025Z,6.40
2018-12-09T20:11:08.530Z,6.40
2018-12-09T20:13:36.096Z,6.40
2018-12-09T20:16:03.587Z,6.40
2018-12-09T20:18:31.050Z,6.40
2018-12-09T20:20:58.863Z,6.40
2018-12-09T20:23:26.367Z,6.40
2018-12-09T20:25:54.031Z,6.40
2018-12-09T20:28:21.500Z,6.50
2018-12-09T20:30:49.320Z,6.50
2018-12-09T20:33:16.764Z,6.50
2018-12-09T20:35:44.687Z,6.50
2018-12-09T20:38:12.240Z,6.50
2018-12-09T20:40:39.696Z,6.50
2018-12-09T20:43:07.352Z,6.40
2018-12-09T20:45:34.799Z,6.40
2018-12-09T20:48:02.268Z,6.40
2018-12-09T20:50:29.742Z,6.40
2018-12-09T20:52:57.200Z,6.40
2018-12-09T20:55:24.947Z,6.40
2018-12-09T20:57:52.391Z,6.40
2018-12-09T21:00:20.799Z,6.40
2018-12-09T21:02:48.250Z,6.40
2018-12-09T21:05:15.722Z,6.40
2018-12-09T21:07:43.175Z,6.40
2018-12-09T21:10:10.702Z,6.50
2018-12-09T21:12:38.983Z,6.50
2018-12-09T21:15:07.038Z,6.50
2018-12-09T21:17:34.514Z,6.50
2018-12-09T21:20:01.987Z,6.50
2018-12-09T21:22:29.473Z,6.50
2018-12-09T21:24:57.168Z,6.50
2018-12-09T21:27:24.623Z,6.50
2018-12-09T21:29:52.140Z,6.50
2018-12-09T21:32:19.603Z,6.50
2018-12-09T21:34:47.579Z,6.50
2018-12-09T21:37:15.368Z,6.50
2018-12-09T21:39:43.749Z,6.40
2018-12-09T21:42:11.205Z,6.40
2018-12-09T21:44:39.239Z,6.40
2018-12-09T21:47:06.725Z,6.40
2018-12-09T21:49:34.164Z,6.40
2018-12-09T21:52:01.652Z,6.40
2018-12-09T21:54:30.016Z,6.40
2018-12-09T21:56:57.495Z,6.40
2018-12-09T21:59:25.879Z,6.40
2018-12-09T22:01:53.391Z,6.40
2018-12-09T22:04:20.969Z,6.30
2018-12-09T22:06:48.452Z,6.30
2018-12-09T22:09:15.896Z,6.30
2018-12-09T22:11:44.080Z,6.30
2018-12-09T22:14:11.837Z,6.30
2018-12-09T22:16:39.303Z,6.30
2018-12-09T22:19:07.345Z,6.30
2018-12-09T22:21:34.812Z,6.30
2018-12-09T22:24:02.275Z,6.30
2018-12-09T22:26:29.850Z,6.20
2018-12-09T22:28:57.283Z,6.20
2018-12-09T22:31:24.952Z,6.20
2018-12-09T22:33:52.452Z,6.20
2018-12-09T22:36:20.153Z,6.20
2018-12-09T22:38:47.619Z,6.20
2018-12-09T22:41:15.383Z,6.20
2018-12-09T22:43:42.932Z,6.20
2018-12-09T22:46:10.464Z,6.20
2018-12-09T22:48:38.059Z,6.20
2018-12-09T22:51:05.505Z,6.20
2018-12-09T22:53:33.143Z,6.20
2018-12-09T22:56:00.816Z,6.20
2018-12-09T22:58:28.483Z,6.20
2018-12-09T23:01:01.487Z,6.10
2018-12-09T23:03:30.865Z,6.10
2018-12-09T23:05:58.544Z,6.10
2018-12-09T23:08:25.972Z,6.10
2018-12-09T23:10:53.458Z,6.10
2018-12-09T23:13:21.224Z,6.10
2018-12-09T23:15:48.696Z,6.10
2018-12-09T23:18:16.166Z,6.10
2018-12-09T23:20:43.634Z,6.10
2018-12-09T23:23:11.060Z,6.00
2018-12-09T23:25:38.569Z,6.00
2018-12-09T23:28:06.175Z,6.00
2018-12-09T23:30:33.655Z,6.00
2018-12-09T23:33:01.123Z,6.00
2018-12-09T23:35:28.559Z,6.00
2018-12-09T23:37:56.649Z,5.90
2018-12-09T23:40:24.090Z,6.00
2018-12-09T23:42:51.563Z,5.90
2018-12-09T23:45:19.075Z,5.90
2018-12-09T23:47:46.543Z,5.80
2018-12-09T23:50:13.998Z,5.80
2018-12-09T23:52:41.446Z,5.70
2018-12-09T23:55:08.923Z,5.70
2018-12-09T23:57:36.673Z,5.60
